createdAt,value
2018-12-31T00:01:09.616Z,97627.61
2018-12-31T00:03:36.677Z,97622.45
2018-12-31T00:06:03.724Z,97627.44
2018-12-31T00:08:30.754Z,97619.97
2018-12-31T00:10:57.807Z,97625.09
2018-12-31T00:13:24.833Z,97620.44
2018-12-31T00:15:51.898Z,97627.73
2018-12-31T00:18:19.036Z,97631.88
2018-12-31T00:20:46.094Z,97632.72
2018-12-31T00:23:13.212Z,97626.73
2018-12-31T00:25:40.281Z,97634.52
2018-12-31T00:28:07.369Z,97642.62
2018-12-31T00:30:34.412Z,97635.95
2018-12-31T00:33:01.445Z,97630.80
2018-12-31T00:35:28.530Z,97629.45
2018-12-31T00:37:55.571Z,97627.26
2018-12-31T00:40:22.609Z,97634.05
2018-12-31T00:42:49.674Z,97633.72
2018-12-31T00:45:16.749Z,97632.70
2018-12-31T00:47:43.817Z,97625.88
2018-12-31T00:50:10.870Z,97642.95
2018-12-31T00:52:37.899Z,97643.44
2018-12-31T00:55:04.959Z,97645.41
2018-12-31T00:57:32.004Z,97643.25
2018-12-31T00:59:59.043Z,97645.91
2018-12-31T01:02:26.101Z,97647.55
2018-12-31T01:04:53.168Z,97645.05
2018-12-31T01:07:20.221Z,97647.39
2018-12-31T01:09:47.266Z,97651.05
2018-12-31T01:12:14.340Z,97650.20
2018-12-31T01:14:41.384Z,97656.59
2018-12-31T01:17:08.436Z,97649.19
2018-12-31T01:19:35.472Z,97636.56
2018-12-31T01:22:02.541Z,97639.05
2018-12-31T01:24:29.587Z,97635.69
2018-12-31T01:26:56.616Z,97647.17
2018-12-31T01:29:23.668Z,97654.17
2018-12-31T01:31:50.704Z,97646.80
2018-12-31T01:34:17.792Z,97640.88
2018-12-31T01:36:44.800Z,97646.41
2018-12-31T01:39:11.857Z,97644.69
2018-12-31T01:41:38.890Z,97649.11
2018-12-31T01:44:05.951Z,97647.41
2018-12-31T01:46:32.984Z,97649.83
2018-12-31T01:49:00.028Z,97655.73
2018-12-31T01:51:27.085Z,97665.35
2018-12-31T01:53:54.121Z,97660.66
2018-12-31T01:56:21.157Z,97672.09
2018-12-31T01:58:48.203Z,97662.45
2018-12-31T02:01:15.253Z,97663.44
2018-12-31T02:03:42.282Z,97656.80
2018-12-31T02:06:09.329Z,97655.63
2018-12-31T02:08:36.370Z,97663.11
2018-12-31T02:11:03.421Z,97659.46
2018-12-31T02:13:30.462Z,97658.13
2018-12-31T02:15:57.498Z,97659.95
2018-12-31T02:18:24.570Z,97659.30
2018-12-31T02:20:51.635Z,97655.81
2018-12-31T02:23:18.928Z,97664.62
2018-12-31T02:25:46.064Z,97665.45
2018-12-31T02:28:13.109Z,97656.16
2018-12-31T02:30:40.156Z,97649.52
2018-12-31T02:33:07.214Z,97640.56
2018-12-31T02:35:34.245Z,97635.25
2018-12-31T02:38:01.294Z,97638.40
2018-12-31T02:40:28.342Z,97639.23
2018-12-31T02:42:55.388Z,97637.41
2018-12-31T02:45:22.439Z,97630.95
2018-12-31T02:47:49.466Z,97619.00
2018-12-31T02:50:16.512Z,97610.55
2018-12-31T02:52:43.542Z,97611.38
2018-12-31T02:55:10.594Z,97610.55
2018-12-31T02:57:37.634Z,97612.36
2018-12-31T03:00:04.693Z,97605.73
2018-12-31T03:02:31.727Z,97605.73
2018-12-31T03:04:58.765Z,97601.75
2018-12-31T03:07:25.802Z,97612.70
2018-12-31T03:09:52.824Z,97620.52
2018-12-31T03:12:19.853Z,97610.23
2018-12-31T03:14:46.891Z,97606.25
2018-12-31T03:17:13.926Z,97604.09
2018-12-31T03:19:40.960Z,97599.95
2018-12-31T03:22:08.005Z,97592.31
2018-12-31T03:24:35.044Z,97596.61
2018-12-31T03:27:02.078Z,97590.80
2018-12-31T03:29:29.110Z,97587.15
2018-12-31T03:31:56.159Z,97585.48
2018-12-31T03:34:23.198Z,97585.33
2018-12-31T03:36:50.260Z,97586.84
2018-12-31T03:39:17.300Z,97585.17
2018-12-31T03:41:44.357Z,97593.81
2018-12-31T03:44:11.414Z,97596.47
2018-12-31T03:46:38.448Z,97600.48
2018-12-31T03:49:05.499Z,97600.48
2018-12-31T03:51:32.547Z,97602.14
2018-12-31T03:53:59.603Z,97593.67
2018-12-31T03:56:26.627Z,97590.86
2018-12-31T03:58:53.698Z,97592.20
2018-12-31T04:01:20.745Z,97588.20
2018-12-31T04:03:47.768Z,97589.05
2018-12-31T04:06:14.800Z,97588.70
2018-12-31T04:08:41.854Z,97587.88
2018-12-31T04:11:08.882Z,97586.05
2018-12-31T04:13:35.931Z,97584.72
2018-12-31T04:16:02.982Z,97579.06
2018-12-31T04:18:30.002Z,97581.72
2018-12-31T04:20:57.043Z,97583.89
2018-12-31T04:23:24.083Z,97585.22
2018-12-31T04:25:51.123Z,97588.36
2018-12-31T04:28:18.139Z,97591.86
2018-12-31T04:30:45.175Z,97591.02
2018-12-31T04:33:12.199Z,97587.38
2018-12-31T04:35:39.229Z,97597.50
2018-12-31T04:38:06.272Z,97596.67
2018-12-31T04:40:33.312Z,97577.25
2018-12-31T04:43:00.369Z,97578.57
2018-12-31T04:45:27.429Z,97563.47
2018-12-31T04:47:54.461Z,97556.16
2018-12-31T04:50:21.491Z,97555.32
2018-12-31T04:52:48.539Z,97559.30
2018-12-31T04:55:15.583Z,97561.96
2018-12-31T04:57:42.629Z,97568.60
2018-12-31T05:00:09.656Z,97572.59
2018-12-31T05:02:36.681Z,97573.08
2018-12-31T05:05:03.909Z,97573.08
2018-12-31T05:07:30.959Z,97576.23
2018-12-31T05:09:57.995Z,97574.75
2018-12-31T05:12:25.030Z,97581.39
2018-12-31T05:14:52.069Z,97576.57
2018-12-31T05:17:19.136Z,97583.55
2018-12-31T05:19:46.210Z,97591.86
2018-12-31T05:22:13.261Z,97589.20
2018-12-31T05:24:40.313Z,97591.02
2018-12-31T05:27:07.371Z,97592.35
2018-12-31T05:29:34.393Z,97600.48
2018-12-31T05:32:01.424Z,97600.81
2018-12-31T05:34:28.471Z,97599.15
2018-12-31T05:36:55.501Z,97599.80
2018-12-31T05:39:22.544Z,97612.41
2018-12-31T05:41:49.600Z,97612.41
2018-12-31T05:44:17.629Z,97601.60
2018-12-31T05:46:44.682Z,97603.42
2018-12-31T05:49:11.839Z,97603.09
2018-12-31T05:51:38.871Z,97614.20
2018-12-31T05:54:05.901Z,97617.70
2018-12-31T05:56:32.927Z,97614.36
2018-12-31T05:58:59.952Z,97615.69
2018-12-31T06:01:26.999Z,97630.48
2018-12-31T06:03:54.049Z,97630.15
2018-12-31T06:06:21.083Z,97626.66
2018-12-31T06:08:48.118Z,97615.70
2018-12-31T06:11:15.165Z,97609.55
2018-12-31T06:13:42.211Z,97614.03
2018-12-31T06:16:09.248Z,97616.34
2018-12-31T06:18:36.293Z,97618.66
2018-12-31T06:21:03.343Z,97617.00
2018-12-31T06:23:30.373Z,97633.43
2018-12-31T06:25:57.420Z,97628.82
2018-12-31T06:28:24.476Z,97633.12
2018-12-31T06:30:51.496Z,97632.40
2018-12-31T06:33:18.555Z,97632.59
2018-12-31T06:35:45.597Z,97626.77
2018-12-31T06:38:12.612Z,97623.24
2018-12-31T06:40:39.679Z,97629.06
2018-12-31T06:43:06.726Z,97637.22
2018-12-31T06:45:33.778Z,97628.03
2018-12-31T06:48:00.803Z,97626.81
2018-12-31T06:50:27.834Z,97623.41
2018-12-31T06:52:54.864Z,97632.27
2018-12-31T06:55:21.916Z,97635.69
2018-12-31T06:57:48.963Z,97640.92
2018-12-31T07:00:16.011Z,97642.44
2018-12-31T07:02:43.055Z,97648.66
2018-12-31T07:05:10.091Z,97654.09
2018-12-31T07:07:37.161Z,97653.03
2018-12-31T07:10:04.806Z,97649.73
2018-12-31T07:12:31.843Z,97647.14
2018-12-31T07:14:58.873Z,97647.20
2018-12-31T07:17:25.903Z,97651.71
2018-12-31T07:19:52.944Z,97652.04
2018-12-31T07:22:19.971Z,97652.81
2018-12-31T07:24:47.029Z,97663.23
2018-12-31T07:27:14.062Z,97673.68
2018-12-31T07:29:41.105Z,97666.16
2018-12-31T07:32:08.147Z,97653.67
2018-12-31T07:34:35.216Z,97651.00
2018-12-31T07:37:02.273Z,97648.63
2018-12-31T07:39:29.303Z,97645.61
2018-12-31T07:41:56.349Z,97643.58
2018-12-31T07:44:23.377Z,97649.73
2018-12-31T07:46:50.432Z,97651.19
2018-12-31T07:49:17.493Z,97666.78
2018-12-31T07:51:44.534Z,97665.94
2018-12-31T07:54:11.571Z,97657.27
2018-12-31T07:56:38.595Z,97660.49
2018-12-31T07:59:05.622Z,97663.50
2018-12-31T08:01:32.686Z,97664.86
2018-12-31T08:03:59.733Z,97667.89
2018-12-31T08:06:26.776Z,97665.23
2018-12-31T08:08:53.814Z,97661.42
2018-12-31T08:11:20.862Z,97655.31
2018-12-31T08:13:47.892Z,97658.82
2018-12-31T08:16:14.930Z,97648.84
2018-12-31T08:18:41.974Z,97650.12
2018-12-31T08:21:09.024Z,97655.41
2018-12-31T08:23:36.089Z,97662.02
2018-12-31T08:26:03.131Z,97655.67
2018-12-31T08:28:30.194Z,97660.94
2018-12-31T08:30:57.254Z,97656.29
2018-12-31T08:33:24.314Z,97661.08
2018-12-31T08:35:51.376Z,97664.73
2018-12-31T08:38:18.433Z,97658.91
2018-12-31T08:40:45.468Z,97653.08
2018-12-31T08:43:12.506Z,97657.88
2018-12-31T08:45:39.579Z,97665.50
2018-12-31T08:48:06.641Z,97663.03
2018-12-31T08:50:33.674Z,97665.74
2018-12-31T08:53:00.725Z,97667.25
2018-12-31T08:55:27.772Z,97664.92
2018-12-31T08:57:54.824Z,97669.25
2018-12-31T09:00:26.216Z,97671.58
2018-12-31T09:02:57.158Z,97671.05
2018-12-31T09:05:25.034Z,97668.55
2018-12-31T09:07:52.086Z,97668.19
2018-12-31T09:10:19.134Z,97669.83
2018-12-31T09:12:46.168Z,97677.80
2018-12-31T09:15:14.710Z,97687.41
2018-12-31T09:17:41.877Z,97690.06
2018-12-31T09:20:08.954Z,97686.08
2018-12-31T09:22:36.054Z,97687.74
2018-12-31T09:25:03.130Z,97692.06
2018-12-31T09:27:30.151Z,97690.05
2018-12-31T09:29:57.201Z,97694.05
2018-12-31T09:32:24.240Z,97693.73
2018-12-31T09:34:51.281Z,97698.73
2018-12-31T09:37:18.320Z,97698.42
2018-12-31T09:39:45.355Z,97705.38
2018-12-31T09:42:12.401Z,97701.36
2018-12-31T09:44:39.501Z,97700.38
2018-12-31T09:47:06.586Z,97701.55
2018-12-31T09:49:33.650Z,97700.87
2018-12-31T09:52:00.696Z,97694.05
2018-12-31T09:54:27.739Z,97698.55
2018-12-31T09:56:54.803Z,97698.70
2018-12-31T09:59:21.853Z,97703.03
2018-12-31T10:01:48.990Z,97700.38
2018-12-31T10:04:16.069Z,97702.38
2018-12-31T10:06:43.122Z,97697.41
2018-12-31T10:09:11.988Z,97700.56
2018-12-31T10:11:39.075Z,97702.04
2018-12-31T10:14:06.116Z,97706.02
2018-12-31T10:16:33.220Z,97703.52
2018-12-31T10:19:00.279Z,97705.00
2018-12-31T10:21:27.339Z,97699.35
2018-12-31T10:23:54.391Z,97695.22
2018-12-31T10:26:21.451Z,97697.19
2018-12-31T10:28:48.539Z,97695.34
2018-12-31T10:31:15.596Z,97689.84
2018-12-31T10:33:42.656Z,97686.48
2018-12-31T10:36:09.684Z,97691.63
2018-12-31T10:38:36.773Z,97689.78
2018-12-31T10:41:03.947Z,97696.23
2018-12-31T10:43:31.045Z,97695.39
2018-12-31T10:45:58.104Z,97697.22
2018-12-31T10:48:25.146Z,97691.07
2018-12-31T10:50:52.265Z,97683.27
2018-12-31T10:53:19.326Z,97685.88
2018-12-31T10:55:46.404Z,97683.19
2018-12-31T10:58:13.466Z,97673.74
2018-12-31T11:00:40.502Z,97677.73
2018-12-31T11:03:07.556Z,97674.95
2018-12-31T11:05:34.617Z,97663.64
2018-12-31T11:08:01.705Z,97662.84
2018-12-31T11:10:29.163Z,97659.20
2018-12-31T11:12:56.214Z,97656.62
2018-12-31T11:15:23.266Z,97658.28
2018-12-31T11:17:50.319Z,97654.08
2018-12-31T11:20:17.372Z,97664.73
2018-12-31T11:22:44.413Z,97659.95
2018-12-31T11:25:11.491Z,97653.86
2018-12-31T11:27:38.537Z,97657.55
2018-12-31T11:30:06.425Z,97661.16
2018-12-31T11:32:33.463Z,97654.64
2018-12-31T11:35:00.546Z,97661.74
2018-12-31T11:37:34.404Z,97661.35
2018-12-31T11:39:56.547Z,97656.80
2018-12-31T11:42:23.633Z,97655.61
2018-12-31T11:44:50.716Z,97647.92
2018-12-31T11:47:17.805Z,97645.59
2018-12-31T11:49:44.867Z,97640.56
2018-12-31T11:52:11.941Z,97638.53
2018-12-31T11:54:39.373Z,97641.34
2018-12-31T11:57:06.453Z,97638.47
2018-12-31T11:59:33.482Z,97629.83
2018-12-31T12:02:00.544Z,97632.45
2018-12-31T12:04:27.595Z,97623.81
2018-12-31T12:06:54.636Z,97624.12
2018-12-31T12:09:21.767Z,97624.58
2018-12-31T12:11:48.846Z,97620.59
2018-12-31T12:14:15.934Z,97617.27
2018-12-31T12:16:42.985Z,97618.25
2018-12-31T12:19:10.098Z,97615.25
2018-12-31T12:21:37.223Z,97618.06
2018-12-31T12:24:04.329Z,97615.41
2018-12-31T12:26:31.426Z,97606.92
2018-12-31T12:28:58.557Z,97609.73
2018-12-31T12:31:25.956Z,97610.06
2018-12-31T12:33:53.080Z,97623.48
2018-12-31T12:36:20.208Z,97617.69
2018-12-31T12:38:47.320Z,97616.36
2018-12-31T12:41:14.451Z,97613.74
2018-12-31T12:43:41.545Z,97617.38
2018-12-31T12:46:09.026Z,97614.23
2018-12-31T12:48:36.120Z,97616.24
2018-12-31T12:51:03.243Z,97623.37
2018-12-31T12:53:30.333Z,97619.20
2018-12-31T12:55:57.455Z,97620.72
2018-12-31T12:58:24.556Z,97622.08
2018-12-31T13:00:51.914Z,97622.76
2018-12-31T13:03:19.021Z,97627.91
2018-12-31T13:05:46.100Z,97624.61
2018-12-31T13:08:13.199Z,97630.26
2018-12-31T13:10:40.308Z,97628.09
2018-12-31T13:13:07.448Z,97629.77
2018-12-31T13:15:34.522Z,97624.61
2018-12-31T13:18:01.696Z,97627.42
2018-12-31T13:20:28.824Z,97621.43
2018-12-31T13:22:56.174Z,97621.77
2018-12-31T13:25:23.362Z,97632.08
2018-12-31T13:27:50.495Z,97628.44
2018-12-31T13:30:17.591Z,97629.42
2018-12-31T13:32:44.703Z,97627.79
2018-12-31T13:35:11.806Z,97631.05
2018-12-31T13:37:38.896Z,97631.51
2018-12-31T13:40:06.009Z,97628.93
2018-12-31T13:42:33.438Z,97625.94
2018-12-31T13:45:01.316Z,97629.53
2018-12-31T13:47:28.424Z,97626.16
2018-12-31T13:49:55.751Z,97627.07
2018-12-31T13:52:22.881Z,97626.77
2018-12-31T13:54:50.331Z,97632.25
2018-12-31T13:57:17.520Z,97636.69
2018-12-31T13:59:44.627Z,97641.27
2018-12-31T14:02:12.151Z,97641.06
2018-12-31T14:04:39.259Z,97643.84
2018-12-31T14:07:06.450Z,97632.98
2018-12-31T14:09:33.586Z,97640.62
2018-12-31T14:12:00.690Z,97642.25
2018-12-31T14:14:28.223Z,97639.91
2018-12-31T14:16:55.344Z,97634.42
2018-12-31T14:19:22.479Z,97644.52
2018-12-31T14:21:49.594Z,97647.97
2018-12-31T14:24:17.095Z,97651.13
2018-12-31T14:26:44.190Z,97644.48
2018-12-31T14:29:14.186Z,97644.67
2018-12-31T14:31:41.308Z,97648.13
2018-12-31T14:34:08.433Z,97647.11
2018-12-31T14:36:35.548Z,97646.63
2018-12-31T14:39:05.688Z,97648.09
2018-12-31T14:41:32.880Z,97648.59
2018-12-31T14:43:59.930Z,97649.73
2018-12-31T14:46:27.041Z,97652.73
2018-12-31T14:48:54.164Z,97656.38
2018-12-31T14:51:21.591Z,97655.88
2018-12-31T14:53:48.718Z,97658.69
2018-12-31T14:56:15.863Z,97654.86
2018-12-31T14:58:43.257Z,97659.00
2018-12-31T15:01:10.401Z,97665.97
2018-12-31T15:03:38.338Z,97662.98
2018-12-31T15:06:05.690Z,97661.16
2018-12-31T15:08:33.035Z,97664.64
2018-12-31T15:11:01.436Z,97662.17
2018-12-31T15:13:28.595Z,97666.99
2018-12-31T15:15:55.958Z,97668.31
2018-12-31T15:18:23.221Z,97658.20
2018-12-31T15:20:50.339Z,97665.02
2018-12-31T15:23:17.410Z,97660.05
2018-12-31T15:25:44.550Z,97662.05
2018-12-31T15:28:11.666Z,97665.23
2018-12-31T15:30:38.793Z,97660.91
2018-12-31T15:33:06.160Z,97660.76
2018-12-31T15:35:34.348Z,97657.45
2018-12-31T15:38:01.688Z,97658.13
2018-12-31T15:40:28.797Z,97660.97
2018-12-31T15:42:55.920Z,97655.17
2018-12-31T15:45:23.015Z,97656.68
2018-12-31T15:47:50.411Z,97655.84
2018-12-31T15:50:17.539Z,97659.18
2018-12-31T15:52:44.710Z,97656.86
2018-12-31T15:55:11.837Z,97657.70
2018-12-31T15:57:38.942Z,97663.19
2018-12-31T16:00:07.962Z,97655.72
2018-12-31T16:02:35.201Z,97661.18
2018-12-31T16:05:02.313Z,97662.02
2018-12-31T16:07:29.442Z,97662.02
2018-12-31T16:09:56.555Z,97661.86
2018-12-31T16:12:23.672Z,97661.70
2018-12-31T16:14:50.770Z,97658.55
2018-12-31T16:17:17.878Z,97656.91
2018-12-31T16:19:45.277Z,97657.75
2018-12-31T16:22:12.350Z,97663.73
2018-12-31T16:24:39.453Z,97655.11
2018-12-31T16:27:06.548Z,97662.59
2018-12-31T16:29:33.636Z,97661.94
2018-12-31T16:32:00.999Z,97663.11
2018-12-31T16:34:29.244Z,97668.77
2018-12-31T16:36:56.476Z,97670.09
2018-12-31T16:39:23.553Z,97671.23
2018-12-31T16:41:50.613Z,97664.59
2018-12-31T16:44:18.126Z,97666.93
2018-12-31T16:46:45.216Z,97664.61
2018-12-31T16:49:12.350Z,97661.46
2018-12-31T16:51:39.434Z,97661.30
2018-12-31T16:54:06.831Z,97661.64
2018-12-31T16:56:33.931Z,97662.31
2018-12-31T16:59:01.398Z,97662.16
2018-12-31T17:01:28.477Z,97660.17
2018-12-31T17:03:55.570Z,97663.85
2018-12-31T17:06:22.630Z,97660.20
2018-12-31T17:08:49.740Z,97658.69
2018-12-31T17:11:16.827Z,97671.66
2018-12-31T17:13:43.883Z,97670.66
2018-12-31T17:16:10.937Z,97678.34
2018-12-31T17:18:38.039Z,97673.03
2018-12-31T17:21:05.131Z,97674.72
2018-12-31T17:23:32.209Z,97670.77
2018-12-31T17:25:59.265Z,97672.27
2018-12-31T17:28:26.649Z,97661.63
2018-12-31T17:30:53.760Z,97651.16
2018-12-31T17:33:20.841Z,97653.65
2018-12-31T17:35:47.902Z,97667.94
2018-12-31T17:38:15.040Z,97668.77
2018-12-31T17:40:42.103Z,97664.62
2018-12-31T17:43:09.507Z,97665.79
2018-12-31T17:45:36.567Z,97666.13
2018-12-31T17:48:03.632Z,97667.60
2018-12-31T17:50:30.716Z,97663.45
2018-12-31T17:52:57.777Z,97671.77
2018-12-31T17:55:24.837Z,97669.27
2018-12-31T17:57:52.078Z,97681.91
2018-12-31T18:00:19.142Z,97675.25
2018-12-31T18:02:46.195Z,97669.78
2018-12-31T18:05:13.255Z,97658.47
2018-12-31T18:07:40.309Z,97658.80
2018-12-31T18:10:08.268Z,97656.82
2018-12-31T18:12:35.609Z,97660.64
2018-12-31T18:15:02.640Z,97662.98
2018-12-31T18:17:29.714Z,97663.81
2018-12-31T18:19:56.762Z,97670.64
2018-12-31T18:22:23.822Z,97680.78
2018-12-31T18:24:50.872Z,97674.47
2018-12-31T18:27:18.122Z,97678.30
2018-12-31T18:29:45.169Z,97678.45
2018-12-31T18:32:12.220Z,97674.48
2018-12-31T18:34:39.256Z,97678.47
2018-12-31T18:37:06.310Z,97678.13
2018-12-31T18:39:33.743Z,97683.13
2018-12-31T18:42:00.812Z,97686.12
2018-12-31T18:44:27.880Z,97688.62
2018-12-31T18:46:54.901Z,97691.77
2018-12-31T18:49:21.971Z,97703.25
2018-12-31T18:51:49.138Z,97695.77
2018-12-31T18:54:16.155Z,97701.42
2018-12-31T18:56:43.296Z,97705.41
2018-12-31T18:59:10.343Z,97707.73
2018-12-31T19:01:37.375Z,97708.91
2018-12-31T19:04:04.430Z,97707.91
2018-12-31T19:06:31.483Z,97703.76
2018-12-31T19:08:58.554Z,97701.09
2018-12-31T19:11:25.608Z,97707.75
2018-12-31T19:13:52.634Z,97713.41
2018-12-31T19:16:19.662Z,97713.74
2018-12-31T19:18:46.740Z,97710.92
2018-12-31T19:21:13.775Z,97713.08
2018-12-31T19:23:40.846Z,97714.91
2018-12-31T19:26:08.093Z,97708.93
2018-12-31T19:28:35.138Z,97710.56
2018-12-31T19:31:02.409Z,97712.41
2018-12-31T19:33:29.450Z,97703.09
2018-12-31T19:35:56.507Z,97710.42
2018-12-31T19:38:23.539Z,97712.26
2018-12-31T19:40:50.792Z,97719.41
2018-12-31T19:43:17.847Z,97710.43
2018-12-31T19:45:44.907Z,97709.10
2018-12-31T19:48:11.950Z,97709.93
2018-12-31T19:50:39.001Z,97715.77
2018-12-31T19:53:06.078Z,97713.44
2018-12-31T19:55:41.633Z,97714.77
2018-12-31T19:58:08.781Z,97709.78
2018-12-31T20:00:35.833Z,97710.12
2018-12-31T20:03:02.887Z,97709.42
2018-12-31T20:05:29.928Z,97706.60
2018-12-31T20:07:57.613Z,97702.11
2018-12-31T20:10:24.627Z,97700.28
2018-12-31T20:12:51.662Z,97699.29
2018-12-31T20:15:18.714Z,97700.45
2018-12-31T20:17:45.753Z,97706.61
2018-12-31T20:20:12.803Z,97704.78
2018-12-31T20:22:40.158Z,97706.28
2018-12-31T20:25:07.185Z,97710.45
2018-12-31T20:27:34.291Z,97710.45
2018-12-31T20:30:01.359Z,97705.96
2018-12-31T20:32:28.393Z,97708.95
2018-12-31T20:34:55.436Z,97701.30
2018-12-31T20:37:22.464Z,97702.47
2018-12-31T20:39:49.710Z,97705.97
2018-12-31T20:42:16.752Z,97707.80
2018-12-31T20:44:43.777Z,97702.47
2018-12-31T20:47:10.814Z,97693.16
2018-12-31T20:49:37.882Z,97686.34
2018-12-31T20:52:04.939Z,97695.95
2018-12-31T20:54:32.000Z,97691.96
2018-12-31T20:56:59.096Z,97686.97
2018-12-31T20:59:26.114Z,97690.80
2018-12-31T21:01:53.792Z,97689.80
2018-12-31T21:04:20.887Z,97690.64
2018-12-31T21:06:47.918Z,97683.48
2018-12-31T21:09:14.944Z,97681.16
2018-12-31T21:11:41.990Z,97679.33
2018-12-31T21:14:09.025Z,97686.15
2018-12-31T21:16:36.064Z,97686.15
2018-12-31T21:19:03.096Z,97683.82
2018-12-31T21:21:30.137Z,97685.15
2018-12-31T21:23:57.188Z,97689.81
2018-12-31T21:26:24.239Z,97692.64
2018-12-31T21:28:51.275Z,97686.31
2018-12-31T21:31:18.307Z,97689.81
2018-12-31T21:33:45.330Z,97688.48
2018-12-31T21:36:12.369Z,97694.47
2018-12-31T21:38:39.421Z,97686.16
2018-12-31T21:41:06.656Z,97690.48
2018-12-31T21:43:33.696Z,97685.48
2018-12-31T21:46:00.730Z,97686.32
2018-12-31T21:48:27.778Z,97689.81
2018-12-31T21:50:54.847Z,97698.47
2018-12-31T21:53:21.895Z,97690.98
2018-12-31T21:55:49.238Z,97686.79
2018-12-31T21:58:16.265Z,97686.49
2018-12-31T22:00:43.294Z,97685.46
2018-12-31T22:03:10.353Z,97681.80
2018-12-31T22:05:37.383Z,97683.97
2018-12-31T22:08:04.411Z,97681.13
2018-12-31T22:10:31.746Z,97672.81
2018-12-31T22:12:58.780Z,97679.80
2018-12-31T22:15:25.810Z,97680.97
2018-12-31T22:17:52.882Z,97682.97
2018-12-31T22:20:19.911Z,97677.81
2018-12-31T22:22:46.978Z,97678.47
2018-12-31T22:25:14.010Z,97678.47
2018-12-31T22:27:41.050Z,97685.47
2018-12-31T22:30:08.851Z,97677.97
2018-12-31T22:32:35.915Z,97676.48
2018-12-31T22:35:02.944Z,97681.30
2018-12-31T22:37:29.973Z,97678.64
2018-12-31T22:39:57.006Z,97685.30
2018-12-31T22:42:24.034Z,97682.64
2018-12-31T22:44:51.100Z,97681.64
2018-12-31T22:47:18.128Z,97682.47
2018-12-31T22:49:45.193Z,97682.80
2018-12-31T22:52:12.246Z,97673.81
2018-12-31T22:54:39.590Z,97674.48
2018-12-31T22:57:06.612Z,97673.15
2018-12-31T22:59:33.639Z,97673.98
2018-12-31T23:02:00.665Z,97667.81
2018-12-31T23:04:27.699Z,97667.81
2018-12-31T23:06:58.352Z,97666.98
2018-12-31T23:09:25.578Z,97676.14
2018-12-31T23:11:52.679Z,97663.66
2018-12-31T23:14:19.730Z,97664.79
2018-12-31T23:16:50.485Z,97662.96
2018-12-31T23:19:17.534Z,97652.50
2018-12-31T23:21:44.575Z,97655.67
2018-12-31T23:24:11.603Z,97648.17
2018-12-31T23:26:38.634Z,97638.52
2018-12-31T23:29:05.675Z,97645.67
2018-12-31T23:31:32.723Z,97645.84
2018-12-31T23:34:00.249Z,97648.67
2018-12-31T23:36:27.304Z,97646.52
2018-12-31T23:38:54.353Z,97643.84
2018-12-31T23:41:21.396Z,97646.17
2018-12-31T23:43:48.452Z,97647.84
2018-12-31T23:46:15.485Z,97647.02
2018-12-31T23:48:42.507Z,97652.34
2018-12-31T23:51:09.550Z,97650.01
2018-12-31T23:53:36.591Z,97647.84
2018-12-31T23:56:03.732Z,97652.34
2018-12-31T23:58:30.763Z,97658.66
